Portada
METAR-TAF:

METAR-TAF

Aeroports :

Lleida-Alguaire

Lleida, Espanya

latitud: 41-43-40N, longitud: 000-32-09E, altitud: 350 m

Observació

L'informe es va fer fa 14 hores i 51 minuts, a les 05:00 UTC
Vent 4 kt del Sud
Temperatura 19°C
Humitat 78%
Pressió 1018 hPa
Visibilitat 10 km o més

METAR: LEDA 210500Z AUTO 18004KT 9999 NCD 19/15 Q1018

Hora: 21:51 (19:51 UTC)


TAF: manca

Observacions i pronòstics meteorològics de més de 4000 aeroports (METAR i TAF).

Les estacions disponibles són els punts grocs i vermells al mapa.

Posi el ratolí al punt desitjat per veure el nom de l'estació.

Feu clic per veure les observacions i els pronòstics meteorològics.

Per canviar el mapa: feu clic els botons verds amb una creu de color negre per apropar; al botó verd amb un guió per allunyar la imatge; o en les fletxes verdes per a mapes adjacents.


METAR-TAF: